createdAt,value
2022-10-11T00:00:55.012Z,13.01
2022-10-11T00:01:56.671Z,12.99
2022-10-11T00:02:58.259Z,12.97
2022-10-11T00:03:59.889Z,12.99
2022-10-11T00:05:01.522Z,13.02
2022-10-11T00:06:05.781Z,13.01
2022-10-11T00:07:07.754Z,13.02
2022-10-11T00:08:09.425Z,12.95
2022-10-11T00:09:11.762Z,12.94
2022-10-11T00:10:13.312Z,12.94
2022-10-11T00:11:14.877Z,12.91
2022-10-11T00:12:16.435Z,12.87
2022-10-11T00:13:18.192Z,12.87
2022-10-11T00:14:19.852Z,12.78
2022-10-11T00:15:21.689Z,12.78
2022-10-11T00:16:23.257Z,12.74
2022-10-11T00:17:24.805Z,12.71
2022-10-11T00:18:26.477Z,12.73
2022-10-11T00:19:28.105Z,12.68
2022-10-11T00:20:29.730Z,12.67
2022-10-11T00:21:31.741Z,12.64
2022-10-11T00:22:34.368Z,12.58
2022-10-11T00:23:36.104Z,12.56
2022-10-11T00:24:37.756Z,12.54
2022-10-11T00:25:39.349Z,12.53
2022-10-11T00:26:45.708Z,12.50
2022-10-11T00:27:48.265Z,12.47
2022-10-11T00:28:51.995Z,12.46
2022-10-11T00:29:53.677Z,12.46
2022-10-11T00:30:55.310Z,12.40
2022-10-11T00:31:56.868Z,12.38
2022-10-11T00:32:58.453Z,12.36
2022-10-11T00:34:00.007Z,12.37
2022-10-11T00:35:06.312Z,12.36
2022-10-11T00:36:09.117Z,12.38
2022-10-11T00:37:11.020Z,12.38
2022-10-11T00:38:12.636Z,12.38
2022-10-11T00:39:14.584Z,12.36
2022-10-11T00:40:17.645Z,12.38
2022-10-11T00:41:19.228Z,12.37
2022-10-11T00:42:20.784Z,12.34
2022-10-11T00:43:24.699Z,12.26
2022-10-11T00:44:27.704Z,12.25
2022-10-11T00:45:32.346Z,12.22
2022-10-11T00:46:33.970Z,12.17
2022-10-11T00:47:35.520Z,12.17
2022-10-11T00:48:40.639Z,12.13
2022-10-11T00:49:42.978Z,12.15
2022-10-11T00:50:44.623Z,12.12
2022-10-11T00:51:49.680Z,12.09
2022-10-11T00:52:54.997Z,12.03
2022-10-11T00:53:56.590Z,12.07
2022-10-11T00:55:00.081Z,12.05
2022-10-11T00:56:14.626Z,12.05
2022-10-11T00:57:19.970Z,12.05
2022-10-11T00:58:21.658Z,12.00
2022-10-11T00:59:25.677Z,12.02
2022-10-11T01:00:27.274Z,12.02
2022-10-11T01:01:28.982Z,11.96
2022-10-11T01:02:30.689Z,11.96
2022-10-11T01:03:32.256Z,11.95
2022-10-11T01:04:34.350Z,11.95
2022-10-11T01:05:36.748Z,11.93
2022-10-11T01:06:38.363Z,11.92
2022-10-11T01:07:40.002Z,11.90
2022-10-11T01:08:41.572Z,11.89
2022-10-11T01:09:43.154Z,11.95
2022-10-11T01:10:44.759Z,11.87
2022-10-11T01:11:46.371Z,11.83
2022-10-11T01:13:08.491Z,11.82
2022-10-11T01:14:17.413Z,11.81
2022-10-11T01:16:11.382Z,11.75
2022-10-11T01:17:12.920Z,11.71
2022-10-11T01:18:35.880Z,11.68
2022-10-11T01:19:55.984Z,11.68
2022-10-11T01:21:19.249Z,11.71
2022-10-11T01:22:35.768Z,11.72
2022-10-11T01:24:04.702Z,11.75
2022-10-11T01:25:43.198Z,11.78
2022-10-11T01:26:50.781Z,11.76
2022-10-11T01:28:07.632Z,11.75
2022-10-11T01:29:30.250Z,11.83
2022-10-11T01:30:35.244Z,11.78
2022-10-11T01:31:44.308Z,11.75
2022-10-11T01:32:51.976Z,11.73
2022-10-11T01:33:55.812Z,11.73
2022-10-11T01:35:23.533Z,11.71
2022-10-11T01:36:34.251Z,11.72
2022-10-11T01:37:45.102Z,11.68
2022-10-11T01:38:49.751Z,11.66
2022-10-11T01:40:15.076Z,11.62
2022-10-11T01:41:22.275Z,11.61
2022-10-11T01:42:23.813Z,11.61
2022-10-11T01:43:25.515Z,11.58
2022-10-11T01:44:27.244Z,11.58
2022-10-11T01:45:28.809Z,11.57
2022-10-11T01:46:30.495Z,11.55
2022-10-11T01:47:32.115Z,11.52
2022-10-11T01:48:33.712Z,11.55
2022-10-11T01:49:35.284Z,11.55
2022-10-11T01:50:49.718Z,11.61
2022-10-11T01:51:52.987Z,11.58
2022-10-11T01:52:54.557Z,11.55
2022-10-11T01:54:03.085Z,11.52
2022-10-11T01:55:19.549Z,11.54
2022-10-11T01:56:51.569Z,11.48
2022-10-11T01:58:18.477Z,11.54
2022-10-11T01:59:44.430Z,11.51
2022-10-11T02:01:00.841Z,11.50
2022-10-11T02:02:02.450Z,11.46
2022-10-11T02:03:29.256Z,11.48
2022-10-11T02:04:37.898Z,11.50
2022-10-11T02:05:47.332Z,11.50
2022-10-11T02:07:06.448Z,11.55
2022-10-11T02:08:19.660Z,11.55
2022-10-11T02:09:22.706Z,11.51
2022-10-11T02:10:48.679Z,11.50
2022-10-11T02:11:50.716Z,11.48
2022-10-11T02:12:59.256Z,11.44
2022-10-11T02:14:07.743Z,11.41
2022-10-11T02:15:09.755Z,11.45
2022-10-11T02:16:13.220Z,11.46
2022-10-11T02:17:19.939Z,11.50
2022-10-11T02:18:24.666Z,11.46
2022-10-11T02:19:28.075Z,11.46
2022-10-11T02:20:30.366Z,11.45
2022-10-11T02:21:31.987Z,11.48
2022-10-11T02:22:37.887Z,11.45
2022-10-11T02:23:42.231Z,11.45
2022-10-11T02:24:45.464Z,11.44
2022-10-11T02:25:47.056Z,11.42
2022-10-11T02:26:52.976Z,11.45
2022-10-11T02:27:55.892Z,11.39
2022-10-11T02:28:58.204Z,11.42
2022-10-11T02:30:01.195Z,11.42
2022-10-11T02:31:03.245Z,11.45
2022-10-11T02:32:05.934Z,11.42
2022-10-11T02:33:07.805Z,11.46
2022-10-11T02:34:31.351Z,11.44
2022-10-11T02:35:34.661Z,11.45
2022-10-11T02:36:48.139Z,11.46
2022-10-11T02:37:59.628Z,11.46
2022-10-11T02:39:07.634Z,11.46
2022-10-11T02:40:09.410Z,11.44
2022-10-11T02:41:30.282Z,11.48
2022-10-11T02:42:43.057Z,11.46
2022-10-11T02:43:57.382Z,11.50
2022-10-11T02:45:05.894Z,11.44
2022-10-11T02:46:08.060Z,11.44
2022-10-11T02:47:10.065Z,11.45
2022-10-11T02:48:11.708Z,11.42
2022-10-11T02:49:13.388Z,11.42
2022-10-11T02:50:15.073Z,11.41
2022-10-11T02:51:17.351Z,11.48
2022-10-11T02:52:18.911Z,11.50
2022-10-11T02:53:20.834Z,11.51
2022-10-11T02:54:23.453Z,11.54
2022-10-11T02:55:25.048Z,11.57
2022-10-11T02:56:26.672Z,11.55
2022-10-11T02:57:28.217Z,11.59
2022-10-11T02:58:29.776Z,11.62
2022-10-11T02:59:31.320Z,11.62
2022-10-11T03:00:32.977Z,11.64
2022-10-11T03:01:34.570Z,11.65
2022-10-11T03:02:36.345Z,11.68
2022-10-11T03:03:37.910Z,11.64
2022-10-11T03:04:39.467Z,11.69
2022-10-11T03:05:41.604Z,11.73
2022-10-11T03:06:43.175Z,11.75
2022-10-11T03:07:44.808Z,11.76
2022-10-11T03:08:46.371Z,11.76
2022-10-11T03:09:47.914Z,11.78
2022-10-11T03:10:49.455Z,11.78
2022-10-11T03:11:51.015Z,11.79
2022-10-11T03:12:52.722Z,11.78
2022-10-11T03:13:55.554Z,11.79
2022-10-11T03:14:57.360Z,11.79
2022-10-11T03:16:03.358Z,11.83
2022-10-11T03:17:31.088Z,11.79
2022-10-11T03:18:27.252Z,11.81
2022-10-11T03:19:28.903Z,11.82
2022-10-11T03:20:30.534Z,11.82
2022-10-11T03:21:32.179Z,11.89
2022-10-11T03:22:33.757Z,11.85
2022-10-11T03:23:35.346Z,11.86
2022-10-11T03:24:36.982Z,11.92
2022-10-11T03:25:38.746Z,11.92
2022-10-11T03:26:40.320Z,11.90
2022-10-11T03:27:41.893Z,11.89
2022-10-11T03:28:43.492Z,11.89
2022-10-11T03:29:45.167Z,11.86
2022-10-11T03:30:50.423Z,11.87
2022-10-11T03:31:52.016Z,11.87
2022-10-11T03:32:53.562Z,11.86
2022-10-11T03:33:55.155Z,11.89
2022-10-11T03:34:56.777Z,11.86
2022-10-11T03:35:58.332Z,11.87
2022-10-11T03:36:59.887Z,11.87
2022-10-11T03:38:01.474Z,11.86
2022-10-11T03:39:03.659Z,11.93
2022-10-11T03:40:06.630Z,11.92
2022-10-11T03:41:08.241Z,11.96
2022-10-11T03:42:09.804Z,11.93
2022-10-11T03:43:11.497Z,11.93
2022-10-11T03:44:13.078Z,11.89
2022-10-11T03:45:14.685Z,11.89
2022-10-11T03:46:16.319Z,11.90
2022-10-11T03:47:18.216Z,11.89
2022-10-11T03:48:19.761Z,11.86
2022-10-11T03:49:21.314Z,11.82
2022-10-11T03:50:23.015Z,11.79
2022-10-11T03:51:24.586Z,11.76
2022-10-11T03:52:26.171Z,11.76
2022-10-11T03:53:27.739Z,11.76
2022-10-11T03:54:29.344Z,11.78
2022-10-11T03:55:30.992Z,11.78
2022-10-11T03:56:32.671Z,11.81
2022-10-11T03:57:34.263Z,11.78
2022-10-11T03:58:35.851Z,11.78
2022-10-11T03:59:37.477Z,11.79
2022-10-11T04:00:39.344Z,11.85
2022-10-11T04:01:41.018Z,11.85
2022-10-11T04:02:42.622Z,11.85
2022-10-11T04:03:44.187Z,11.85
2022-10-11T04:04:45.793Z,11.81
2022-10-11T04:05:47.504Z,11.72
2022-10-11T04:06:49.090Z,11.73
2022-10-11T04:07:50.944Z,11.75
2022-10-11T04:08:52.546Z,11.72
2022-10-11T04:09:54.088Z,11.72
2022-10-11T04:10:55.733Z,11.68
2022-10-11T04:11:57.333Z,11.66
2022-10-11T04:12:59.008Z,11.68
2022-10-11T04:14:00.649Z,11.65
2022-10-11T04:15:02.210Z,11.68
2022-10-11T04:16:04.224Z,11.66
2022-10-11T04:17:06.461Z,11.61
2022-10-11T04:18:08.161Z,11.64
2022-10-11T04:19:09.715Z,11.64
2022-10-11T04:20:11.376Z,11.59
2022-10-11T04:21:12.896Z,11.59
2022-10-11T04:22:14.511Z,11.55
2022-10-11T04:23:16.063Z,11.51
2022-10-11T04:24:17.610Z,11.52
2022-10-11T04:25:19.170Z,11.50
2022-10-11T04:26:20.777Z,11.46
2022-10-11T04:27:22.320Z,11.48
2022-10-11T04:28:23.959Z,11.48
2022-10-11T04:29:28.860Z,11.45
2022-10-11T04:30:33.911Z,11.46
2022-10-11T04:31:35.541Z,11.42
2022-10-11T04:32:37.210Z,11.44
2022-10-11T04:33:38.766Z,11.45
2022-10-11T04:34:40.395Z,11.44
2022-10-11T04:35:41.978Z,11.42
2022-10-11T04:36:47.559Z,11.45
2022-10-11T04:37:51.282Z,11.50
2022-10-11T04:38:56.137Z,11.54
2022-10-11T04:39:57.689Z,11.50
2022-10-11T04:41:14.241Z,11.46
2022-10-11T04:42:16.467Z,11.50
2022-10-11T04:43:19.113Z,11.50
2022-10-11T04:44:20.694Z,11.46
2022-10-11T04:45:22.280Z,11.50
2022-10-11T04:46:23.961Z,11.50
2022-10-11T04:47:25.551Z,11.52
2022-10-11T04:48:27.165Z,11.51
2022-10-11T04:49:28.728Z,11.55
2022-10-11T04:50:30.304Z,11.57
2022-10-11T04:51:33.751Z,11.62
2022-10-11T04:52:35.316Z,11.62
2022-10-11T04:53:36.948Z,11.65
2022-10-11T04:54:38.510Z,11.62
2022-10-11T04:55:40.323Z,11.64
2022-10-11T04:56:41.852Z,11.62
2022-10-11T04:57:43.401Z,11.64
2022-10-11T04:58:45.615Z,11.68
2022-10-11T04:59:50.163Z,11.72
2022-10-11T05:00:51.988Z,11.71
2022-10-11T05:01:53.605Z,11.72
2022-10-11T05:02:55.329Z,11.75
2022-10-11T05:03:56.991Z,11.73
2022-10-11T05:04:58.768Z,11.71
2022-10-11T05:06:05.176Z,11.71
2022-10-11T05:07:07.351Z,11.71
2022-10-11T05:08:08.907Z,11.71
2022-10-11T05:09:10.524Z,11.72
2022-10-11T05:10:12.159Z,11.71
2022-10-11T05:11:16.012Z,11.73
2022-10-11T05:12:17.849Z,11.75
2022-10-11T05:13:19.659Z,11.75
2022-10-11T05:14:21.428Z,11.73
2022-10-11T05:15:23.115Z,11.75
2022-10-11T05:16:24.782Z,11.76
2022-10-11T05:17:26.340Z,11.78
2022-10-11T05:18:28.092Z,11.83
2022-10-11T05:19:29.673Z,11.87
2022-10-11T05:20:31.277Z,11.93
2022-10-11T05:21:32.918Z,11.93
2022-10-11T05:22:34.487Z,11.87
2022-10-11T05:23:36.766Z,11.85
2022-10-11T05:24:38.396Z,11.82
2022-10-11T05:25:39.979Z,11.83
2022-10-11T05:26:41.523Z,11.79
2022-10-11T05:27:43.104Z,11.83
2022-10-11T05:28:44.896Z,11.87
2022-10-11T05:29:46.570Z,11.90
2022-10-11T05:30:48.138Z,11.93
2022-10-11T05:31:49.694Z,12.00
2022-10-11T05:32:51.253Z,12.05
2022-10-11T05:33:52.895Z,12.09
2022-10-11T05:34:54.564Z,12.12
2022-10-11T05:35:56.122Z,12.13
2022-10-11T05:36:57.674Z,12.13
2022-10-11T05:37:59.241Z,12.12
2022-10-11T05:39:00.862Z,12.16
2022-10-11T05:40:02.475Z,12.19
2022-10-11T05:41:04.234Z,12.26
2022-10-11T05:42:09.711Z,12.29
2022-10-11T05:43:11.947Z,12.32
2022-10-11T05:44:13.584Z,12.34
2022-10-11T05:45:15.188Z,12.37
2022-10-11T05:46:16.939Z,12.41
2022-10-11T05:47:18.482Z,12.44
2022-10-11T05:48:20.133Z,12.44
2022-10-11T05:49:21.795Z,12.50
2022-10-11T05:50:24.544Z,12.50
2022-10-11T05:51:26.342Z,12.48
2022-10-11T05:52:27.928Z,12.53
2022-10-11T05:53:29.720Z,12.53
2022-10-11T05:54:31.559Z,12.53
2022-10-11T05:55:37.741Z,12.53
2022-10-11T05:56:39.729Z,12.58
2022-10-11T05:57:41.371Z,12.58
2022-10-11T05:58:42.918Z,12.64
2022-10-11T05:59:44.549Z,12.64
2022-10-11T06:00:46.107Z,12.63
2022-10-11T06:01:47.781Z,12.61
2022-10-11T06:02:49.462Z,12.57
2022-10-11T06:03:51.156Z,12.54
2022-10-11T06:04:52.835Z,12.48
2022-10-11T06:06:03.234Z,12.48
2022-10-11T06:07:05.123Z,12.41
2022-10-11T06:08:07.311Z,12.33
2022-10-11T06:09:09.401Z,12.27
2022-10-11T06:10:11.087Z,12.22
2022-10-11T06:11:13.848Z,12.12
2022-10-11T06:12:15.398Z,12.15
2022-10-11T06:13:17.115Z,12.10
2022-10-11T06:14:19.295Z,12.12
2022-10-11T06:15:20.863Z,12.17
2022-10-11T06:16:22.537Z,12.15
2022-10-11T06:17:24.157Z,12.16
2022-10-11T06:18:25.719Z,12.23
2022-10-11T06:19:27.319Z,12.29
2022-10-11T06:20:28.943Z,12.32
2022-10-11T06:21:30.641Z,12.33
2022-10-11T06:22:32.224Z,12.38
2022-10-11T06:23:33.808Z,12.47
2022-10-11T06:24:35.431Z,12.50
2022-10-11T06:25:36.970Z,12.58
2022-10-11T06:26:38.555Z,12.58
2022-10-11T06:27:40.135Z,12.57
2022-10-11T06:28:41.771Z,12.57
2022-10-11T06:29:43.363Z,12.54
2022-10-11T06:30:44.939Z,12.51
2022-10-11T06:31:48.059Z,12.46
2022-10-11T06:32:49.585Z,12.46
2022-10-11T06:33:51.243Z,12.46
2022-10-11T06:34:52.865Z,12.47
2022-10-11T06:35:59.074Z,12.50
2022-10-11T06:37:00.641Z,12.57
2022-10-11T06:38:02.224Z,12.63
2022-10-11T06:39:03.898Z,12.65
2022-10-11T06:40:05.963Z,12.71
2022-10-11T06:41:14.497Z,12.78
2022-10-11T06:42:16.144Z,12.88
2022-10-11T06:43:17.694Z,12.98
2022-10-11T06:44:19.457Z,13.01
2022-10-11T06:45:21.275Z,13.11
2022-10-11T06:46:24.937Z,13.18
2022-10-11T06:47:26.470Z,13.26
2022-10-11T06:48:28.073Z,13.32
2022-10-11T06:49:29.660Z,13.40
2022-10-11T06:50:57.889Z,13.46
2022-10-11T06:51:52.918Z,13.59
2022-10-11T06:52:54.494Z,13.66
2022-10-11T06:53:57.943Z,13.66
2022-10-11T06:54:59.604Z,13.74
2022-10-11T06:56:05.448Z,13.77
2022-10-11T06:57:07.130Z,13.86
2022-10-11T06:58:08.710Z,13.91
2022-10-11T06:59:10.291Z,14.00
2022-10-11T07:00:12.931Z,14.00
2022-10-11T07:01:16.950Z,14.04
2022-10-11T07:02:18.574Z,14.07
2022-10-11T07:03:20.124Z,14.13
2022-10-11T07:04:21.709Z,14.18
2022-10-11T07:05:23.666Z,14.21
2022-10-11T07:06:26.660Z,14.25
2022-10-11T07:07:28.236Z,14.30
2022-10-11T07:08:29.978Z,14.31
2022-10-11T07:09:31.554Z,14.37
2022-10-11T07:10:33.126Z,14.40
2022-10-11T07:11:34.843Z,14.49
2022-10-11T07:12:36.375Z,14.51
2022-10-11T07:13:38.357Z,14.54
2022-10-11T07:14:40.654Z,14.57
2022-10-11T07:15:42.243Z,14.61
2022-10-11T07:16:43.870Z,14.62
2022-10-11T07:17:45.618Z,14.68
2022-10-11T07:18:47.489Z,14.78
2022-10-11T07:19:49.082Z,14.78
2022-10-11T07:20:50.630Z,14.92
2022-10-11T07:21:52.245Z,15.02
2022-10-11T07:22:53.823Z,15.10
2022-10-11T07:23:55.442Z,15.18
2022-10-11T07:24:57.046Z,15.30
2022-10-11T07:25:58.651Z,15.33
2022-10-11T07:27:01.159Z,15.36
2022-10-11T07:28:02.747Z,15.37
2022-10-11T07:29:04.417Z,15.46
2022-10-11T07:30:06.731Z,15.58
2022-10-11T07:31:17.427Z,15.61
2022-10-11T07:32:19.040Z,15.68
2022-10-11T07:33:20.645Z,15.70
2022-10-11T07:34:23.060Z,15.73
2022-10-11T07:35:24.650Z,15.71
2022-10-11T07:36:26.263Z,15.76
2022-10-11T07:37:27.883Z,15.84
2022-10-11T07:38:29.503Z,15.87
2022-10-11T07:39:31.831Z,15.95
2022-10-11T07:40:34.057Z,16.00
2022-10-11T07:41:38.180Z,16.04
2022-10-11T07:42:42.342Z,16.00
2022-10-11T07:43:43.948Z,16.09
2022-10-11T07:44:45.645Z,16.14
2022-10-11T07:45:48.879Z,16.14
2022-10-11T07:46:50.454Z,16.19
2022-10-11T07:47:52.017Z,16.24
2022-10-11T07:48:53.585Z,16.29
2022-10-11T07:49:55.221Z,16.29
2022-10-11T07:51:06.905Z,16.26
2022-10-11T07:52:08.745Z,16.28
2022-10-11T07:53:10.336Z,16.29
2022-10-11T07:54:11.952Z,16.22
2022-10-11T07:55:13.570Z,16.21
2022-10-11T07:56:16.864Z,16.18
2022-10-11T07:57:18.435Z,16.21
2022-10-11T07:58:19.995Z,16.21
2022-10-11T07:59:21.575Z,16.19
2022-10-11T08:00:23.695Z,16.19
2022-10-11T08:01:26.092Z,16.22
2022-10-11T08:02:27.731Z,16.25
2022-10-11T08:03:29.528Z,16.33
2022-10-11T08:04:31.145Z,16.33
2022-10-11T08:05:33.096Z,16.38
2022-10-11T08:06:36.571Z,16.42
2022-10-11T08:07:38.192Z,16.44
2022-10-11T08:08:39.829Z,16.45
2022-10-11T08:09:41.607Z,16.45
2022-10-11T08:10:43.299Z,16.45
2022-10-11T08:11:44.873Z,16.49
2022-10-11T08:12:49.519Z,16.53
2022-10-11T08:13:51.416Z,16.58
2022-10-11T08:14:54.901Z,16.59
2022-10-11T08:15:56.513Z,16.63
2022-10-11T08:16:58.139Z,16.72
2022-10-11T08:17:59.829Z,16.77
2022-10-11T08:19:03.101Z,16.77
2022-10-11T08:20:05.027Z,16.77
2022-10-11T08:21:10.910Z,16.82
2022-10-11T08:22:12.550Z,16.86
2022-10-11T08:23:14.142Z,16.94
2022-10-11T08:24:16.547Z,17.00
2022-10-11T08:25:18.120Z,17.14
2022-10-11T08:26:19.710Z,17.17
2022-10-11T08:27:21.324Z,17.24
2022-10-11T08:28:22.938Z,17.34
2022-10-11T08:29:24.537Z,17.30
2022-10-11T08:30:26.173Z,17.28
2022-10-11T08:31:27.798Z,17.34
2022-10-11T08:32:30.480Z,17.37
2022-10-11T08:33:32.158Z,17.38
2022-10-11T08:34:33.728Z,17.41
2022-10-11T08:35:36.252Z,17.45
2022-10-11T08:36:37.963Z,17.44
2022-10-11T08:37:39.959Z,17.50
2022-10-11T08:38:41.740Z,17.57
2022-10-11T08:39:43.276Z,17.61
2022-10-11T08:40:49.163Z,17.61
2022-10-11T08:41:54.992Z,17.61
2022-10-11T08:43:03.094Z,17.65
2022-10-11T08:44:19.610Z,17.74
2022-10-11T08:45:27.383Z,17.77
2022-10-11T08:46:30.965Z,17.81
2022-10-11T08:47:42.516Z,17.86
2022-10-11T08:48:47.760Z,17.86
2022-10-11T08:49:49.476Z,17.84
2022-10-11T08:50:51.358Z,17.91
2022-10-11T08:52:00.096Z,17.92
2022-10-11T08:53:08.079Z,17.94
2022-10-11T08:54:47.048Z,17.99
2022-10-11T08:55:51.829Z,18.02
2022-10-11T08:56:53.430Z,18.06
2022-10-11T08:57:55.952Z,18.05
2022-10-11T08:59:04.967Z,18.08
2022-10-11T09:00:08.412Z,18.12
2022-10-11T09:01:14.735Z,18.16
2022-10-11T09:02:16.297Z,18.21
2022-10-11T09:03:27.515Z,18.15
2022-10-11T09:04:29.207Z,18.13
2022-10-11T09:05:52.097Z,18.13
2022-10-11T09:07:05.552Z,18.22
2022-10-11T09:08:16.048Z,18.26
2022-10-11T09:09:26.821Z,18.35
2022-10-11T09:10:37.130Z,18.39
2022-10-11T09:11:57.009Z,18.53
2022-10-11T09:13:20.188Z,18.60
2022-10-11T09:14:36.877Z,18.67
2022-10-11T09:15:55.924Z,18.61
2022-10-11T09:17:07.188Z,18.70
2022-10-11T09:18:37.243Z,18.76
2022-10-11T09:19:57.411Z,18.77
2022-10-11T09:21:23.953Z,18.88
2022-10-11T09:22:49.543Z,18.96
2022-10-11T09:23:51.058Z,18.98
2022-10-11T09:25:25.182Z,19.08
2022-10-11T09:26:35.921Z,19.15
2022-10-11T09:28:10.882Z,19.24
2022-10-11T09:29:24.952Z,19.27
2022-10-11T09:30:26.616Z,19.34
2022-10-11T09:31:28.229Z,19.41
2022-10-11T09:32:32.543Z,19.39
2022-10-11T09:33:34.724Z,19.44
2022-10-11T09:34:36.279Z,19.49
2022-10-11T09:35:43.176Z,19.41
2022-10-11T09:36:56.462Z,19.51
2022-10-11T09:38:04.651Z,19.59
2022-10-11T09:39:33.309Z,19.72
2022-10-11T09:41:19.891Z,19.76
2022-10-11T09:42:21.628Z,19.79
2022-10-11T09:43:23.195Z,19.75
2022-10-11T09:44:27.283Z,19.73
2022-10-11T09:45:28.878Z,19.82
2022-10-11T09:46:38.134Z,19.80
2022-10-11T09:47:39.680Z,19.76
2022-10-11T09:48:41.343Z,19.66
2022-10-11T09:49:47.738Z,19.62
2022-10-11T09:50:49.350Z,19.73
2022-10-11T09:51:53.672Z,19.78
2022-10-11T09:53:02.076Z,19.82
2022-10-11T09:54:05.379Z,19.83
2022-10-11T09:55:07.190Z,19.83
2022-10-11T09:56:09.680Z,19.89
2022-10-11T09:57:31.541Z,19.87
2022-10-11T09:58:34.770Z,19.87
2022-10-11T09:59:36.474Z,19.80
2022-10-11T10:00:38.908Z,19.68
2022-10-11T10:01:40.570Z,19.70
2022-10-11T10:02:47.516Z,19.61
2022-10-11T10:03:49.372Z,19.61
2022-10-11T10:04:53.801Z,19.57
2022-10-11T10:06:30.695Z,19.52
2022-10-11T10:07:32.991Z,19.51
2022-10-11T10:08:34.973Z,19.47
2022-10-11T10:09:36.550Z,19.44
2022-10-11T10:10:57.119Z,19.38
2022-10-11T10:12:01.328Z,19.29
2022-10-11T10:13:04.086Z,19.19
2022-10-11T10:14:05.698Z,19.18
2022-10-11T10:15:14.182Z,19.14
2022-10-11T10:16:32.284Z,19.14
2022-10-11T10:17:34.582Z,19.07
2022-10-11T10:18:44.881Z,19.08
2022-10-11T10:19:50.998Z,19.00
2022-10-11T10:20:57.080Z,18.96
2022-10-11T10:21:58.744Z,18.90
2022-10-11T10:23:33.355Z,18.83
2022-10-11T10:24:38.322Z,18.81
2022-10-11T10:25:43.783Z,18.84
2022-10-11T10:27:07.219Z,18.78
2022-10-11T10:28:26.618Z,18.81
2022-10-11T10:29:28.207Z,18.77
2022-10-11T10:30:35.239Z,18.83
2022-10-11T10:32:13.761Z,18.83
2022-10-11T10:33:17.128Z,18.84
2022-10-11T10:34:28.847Z,18.88
2022-10-11T10:35:48.798Z,18.84
2022-10-11T10:36:55.988Z,18.81
2022-10-11T10:38:16.671Z,18.86
2022-10-11T10:39:23.972Z,18.91
2022-10-11T10:40:30.131Z,18.94
2022-10-11T10:41:31.794Z,18.88
2022-10-11T10:42:33.365Z,18.94
2022-10-11T10:43:36.165Z,18.90
2022-10-11T10:44:37.723Z,18.93
2022-10-11T10:46:08.812Z,18.86
2022-10-11T10:47:20.809Z,18.86
2022-10-11T10:48:46.933Z,18.83
2022-10-11T10:50:16.268Z,18.74
2022-10-11T10:51:52.811Z,18.76
2022-10-11T10:53:04.348Z,18.78
2022-10-11T10:54:15.085Z,18.83
2022-10-11T10:55:33.840Z,18.88
2022-10-11T10:56:39.750Z,18.97
2022-10-11T10:58:04.155Z,19.01
2022-10-11T10:59:38.970Z,19.03
2022-10-11T11:00:50.380Z,19.06
2022-10-11T11:02:06.736Z,19.08
2022-10-11T11:03:56.058Z,19.17
2022-10-11T11:05:07.134Z,19.24
2022-10-11T11:06:12.314Z,19.31
2022-10-11T11:07:35.474Z,19.39
2022-10-11T11:09:11.612Z,19.44
2022-10-11T11:10:14.773Z,19.44
2022-10-11T11:11:25.073Z,19.42
2022-10-11T11:12:45.146Z,19.44
2022-10-11T11:13:52.910Z,19.52
2022-10-11T11:15:03.574Z,19.55
2022-10-11T11:16:13.677Z,19.63
2022-10-11T11:17:15.221Z,19.69
2022-10-11T11:18:35.176Z,19.70
2022-10-11T11:19:49.627Z,19.79
2022-10-11T11:20:53.971Z,19.82
2022-10-11T11:21:58.669Z,19.92
2022-10-11T11:23:18.564Z,19.82
2022-10-11T11:24:38.370Z,19.79
2022-10-11T11:26:09.082Z,19.70
2022-10-11T11:27:30.083Z,19.76
2022-10-11T11:28:49.584Z,19.73
2022-10-11T11:30:01.243Z,19.69
2022-10-11T11:31:21.392Z,19.66
2022-10-11T11:32:26.537Z,19.66
2022-10-11T11:33:48.501Z,19.59
2022-10-11T11:34:53.981Z,19.55
2022-10-11T11:35:56.687Z,19.55
2022-10-11T11:37:04.229Z,19.57
2022-10-11T11:38:16.406Z,19.55
2022-10-11T11:39:23.469Z,19.58
2022-10-11T11:40:34.852Z,19.57
2022-10-11T11:41:38.678Z,19.62
2022-10-11T11:42:51.510Z,19.68
2022-10-11T11:44:04.947Z,19.69
2022-10-11T11:45:15.984Z,19.76
2022-10-11T11:46:26.957Z,19.79
2022-10-11T11:47:36.941Z,19.76
2022-10-11T11:48:38.591Z,19.82
2022-10-11T11:49:45.275Z,19.86
2022-10-11T11:50:52.117Z,19.90
2022-10-11T11:51:53.655Z,19.93
2022-10-11T11:53:00.130Z,19.96
2022-10-11T11:54:28.971Z,20.01
2022-10-11T11:55:56.355Z,19.93
2022-10-11T11:57:05.240Z,19.96
2022-10-11T11:58:29.993Z,19.94
2022-10-11T11:59:34.259Z,19.87
2022-10-11T12:00:46.742Z,19.83
2022-10-11T12:02:43.282Z,19.82
2022-10-11T12:03:47.536Z,19.85
2022-10-11T12:04:49.195Z,19.86
2022-10-11T12:06:19.815Z,19.82
2022-10-11T12:07:22.776Z,19.83
2022-10-11T12:08:25.949Z,19.85
2022-10-11T12:09:27.535Z,19.82
2022-10-11T12:10:39.809Z,19.78
2022-10-11T12:11:55.973Z,19.76
2022-10-11T12:13:12.834Z,19.73
2022-10-11T12:14:22.268Z,19.73
2022-10-11T12:15:25.406Z,19.75
2022-10-11T12:16:27.734Z,19.79
2022-10-11T12:17:29.361Z,19.80
2022-10-11T12:18:31.462Z,19.79
2022-10-11T12:19:33.122Z,19.75
2022-10-11T12:20:41.765Z,19.83
2022-10-11T12:21:43.970Z,19.89
2022-10-11T12:23:23.479Z,19.92
2022-10-11T12:24:25.056Z,19.97
2022-10-11T12:25:26.585Z,20.00
2022-10-11T12:26:28.171Z,20.01
2022-10-11T12:27:46.732Z,20.08
2022-10-11T12:29:01.850Z,20.19
2022-10-11T12:30:05.136Z,20.10
2022-10-11T12:31:23.620Z,20.12
2022-10-11T12:32:27.916Z,20.14
2022-10-11T12:33:32.924Z,20.13
2022-10-11T12:34:35.906Z,20.09
2022-10-11T12:35:40.088Z,20.06
2022-10-11T12:36:42.448Z,20.12
2022-10-11T12:37:43.969Z,20.16
2022-10-11T12:38:45.622Z,20.20
2022-10-11T12:39:51.204Z,20.21
2022-10-11T12:40:54.885Z,20.23
2022-10-11T12:42:22.513Z,20.24
2022-10-11T12:43:27.200Z,20.30
2022-10-11T12:44:28.946Z,20.29
2022-10-11T12:45:32.279Z,20.33
2022-10-11T12:46:39.470Z,20.33
2022-10-11T12:48:05.472Z,20.37
2022-10-11T12:49:24.505Z,20.41
2022-10-11T12:50:43.959Z,20.34
2022-10-11T12:52:04.259Z,20.31
2022-10-11T12:53:30.318Z,20.43
2022-10-11T12:54:37.871Z,20.43
2022-10-11T12:56:09.314Z,20.43
2022-10-11T12:57:20.052Z,20.34
2022-10-11T12:58:38.779Z,20.30
2022-10-11T12:59:43.740Z,20.12
2022-10-11T13:00:50.956Z,20.08
2022-10-11T13:01:54.198Z,20.03
2022-10-11T13:02:56.830Z,20.03
2022-10-11T13:04:08.666Z,19.96
2022-10-11T13:05:26.000Z,20.00
2022-10-11T13:06:29.947Z,20.06
2022-10-11T13:07:31.519Z,20.06
2022-10-11T13:08:34.903Z,20.09
2022-10-11T13:09:39.932Z,20.14
2022-10-11T13:10:44.273Z,20.10
2022-10-11T13:11:48.591Z,20.03
2022-10-11T13:12:50.182Z,20.06
2022-10-11T13:13:56.840Z,20.06
2022-10-11T13:14:58.447Z,20.09
2022-10-11T13:16:04.215Z,20.08
2022-10-11T13:17:26.860Z,20.08
2022-10-11T13:18:28.408Z,19.97
2022-10-11T13:19:30.955Z,20.01
2022-10-11T13:20:37.432Z,20.06
2022-10-11T13:21:41.899Z,20.05
2022-10-11T13:22:44.385Z,20.12
2022-10-11T13:23:45.967Z,20.05
2022-10-11T13:24:47.531Z,19.97
2022-10-11T13:25:49.209Z,19.94
2022-10-11T13:26:51.966Z,19.89
2022-10-11T13:27:54.790Z,19.93
2022-10-11T13:28:56.521Z,19.94
2022-10-11T13:30:02.364Z,19.87
2022-10-11T13:31:04.481Z,19.89
2022-10-11T13:32:12.896Z,19.83
2022-10-11T13:33:32.448Z,19.83
2022-10-11T13:34:38.266Z,19.80
2022-10-11T13:35:39.832Z,19.82
2022-10-11T13:36:41.522Z,19.83
2022-10-11T13:37:45.447Z,19.83
2022-10-11T13:38:54.795Z,19.87
2022-10-11T13:39:56.876Z,19.78
2022-10-11T13:40:59.732Z,19.83
2022-10-11T13:42:01.903Z,19.85
2022-10-11T13:43:05.226Z,19.86
2022-10-11T13:44:06.832Z,19.82
2022-10-11T13:45:16.261Z,19.82
2022-10-11T13:46:23.307Z,19.79
2022-10-11T13:47:28.324Z,19.80
2022-10-11T13:48:32.293Z,19.75
2022-10-11T13:49:40.375Z,19.76
2022-10-11T13:50:46.299Z,19.75
2022-10-11T13:51:47.941Z,19.73
2022-10-11T13:52:56.226Z,19.70
2022-10-11T13:53:58.891Z,19.66
2022-10-11T13:55:00.746Z,19.66
2022-10-11T13:56:04.296Z,19.65
2022-10-11T13:57:06.141Z,19.59
2022-10-11T13:58:18.504Z,19.59
2022-10-11T13:59:24.359Z,19.59
2022-10-11T14:00:29.799Z,19.52
2022-10-11T14:01:41.326Z,19.55
2022-10-11T14:02:59.567Z,19.54
2022-10-11T14:04:02.895Z,19.54
2022-10-11T14:05:04.625Z,19.52
2022-10-11T14:06:06.586Z,19.54
2022-10-11T14:07:35.723Z,19.54
2022-10-11T14:08:50.499Z,19.54
2022-10-11T14:09:52.091Z,19.59
2022-10-11T14:10:57.178Z,19.61